createdAt,value
2022-11-30T00:02:08.389Z,23.13
2022-11-30T00:04:36.167Z,26.30
2022-11-30T00:07:05.124Z,26.77
2022-11-30T00:09:32.706Z,25.27
2022-11-30T00:12:00.228Z,28.23
2022-11-30T00:14:27.728Z,27.27
2022-11-30T00:16:55.312Z,27.63
2022-11-30T00:19:22.869Z,28.13
2022-11-30T00:21:50.432Z,25.30
2022-11-30T00:24:19.494Z,26.50
2022-11-30T00:26:48.267Z,24.90
2022-11-30T00:29:15.794Z,27.03
2022-11-30T00:31:43.270Z,30.50
2022-11-30T00:34:10.766Z,30.90
2022-11-30T00:36:39.191Z,34.43
2022-11-30T00:39:06.793Z,29.20
2022-11-30T00:41:35.736Z,22.83
2022-11-30T00:44:03.287Z,23.43
2022-11-30T00:46:30.845Z,21.87
2022-11-30T00:48:58.363Z,23.17
2022-11-30T00:51:26.147Z,27.17
2022-11-30T00:53:53.659Z,27.63
2022-11-30T00:56:21.313Z,25.27
2022-11-30T00:58:50.227Z,23.60
2022-11-30T01:01:17.841Z,24.40
2022-11-30T01:03:45.727Z,29.27
2022-11-30T01:06:13.230Z,23.33
2022-11-30T01:08:40.779Z,26.63
2022-11-30T01:11:10.483Z,21.47
2022-11-30T01:13:38.044Z,21.83
2022-11-30T01:16:11.787Z,23.27
2022-11-30T01:18:39.711Z,24.57
2022-11-30T01:21:08.620Z,33.17
2022-11-30T01:23:36.242Z,23.83
2022-11-30T01:26:03.908Z,25.77
2022-11-30T01:28:31.552Z,24.20
2022-11-30T01:30:59.794Z,27.17
2022-11-30T01:33:28.950Z,26.30
2022-11-30T01:36:01.177Z,22.73
2022-11-30T01:38:31.864Z,21.57
2022-11-30T01:40:59.339Z,20.20
2022-11-30T01:43:38.739Z,20.10
2022-11-30T01:46:07.202Z,24.50
2022-11-30T01:48:36.223Z,20.93
2022-11-30T01:51:03.780Z,25.10
2022-11-30T01:53:31.347Z,22.10
2022-11-30T01:55:58.841Z,20.67
2022-11-30T01:58:28.832Z,27.27
2022-11-30T02:00:56.537Z,22.10
2022-11-30T02:03:29.902Z,25.37
2022-11-30T02:05:58.866Z,20.53
2022-11-30T02:08:26.890Z,23.47
2022-11-30T02:10:56.684Z,29.67
2022-11-30T02:13:33.186Z,18.33
2022-11-30T02:16:07.756Z,18.37
2022-11-30T02:18:44.633Z,30.20
2022-11-30T02:21:17.271Z,29.03
2022-11-30T02:24:04.917Z,21.97
2022-11-30T02:26:45.692Z,24.37
2022-11-30T02:29:17.889Z,29.90
2022-11-30T02:31:50.376Z,22.97
2022-11-30T02:34:19.176Z,24.60
2022-11-30T02:36:47.328Z,22.83
2022-11-30T02:39:14.897Z,29.83
2022-11-30T02:41:42.479Z,24.37
2022-11-30T02:44:11.636Z,26.80
2022-11-30T02:46:52.987Z,27.70
2022-11-30T02:49:25.027Z,27.87
2022-11-30T02:51:53.605Z,23.37
2022-11-30T02:54:21.225Z,25.03
2022-11-30T02:56:48.908Z,25.40
2022-11-30T02:59:16.507Z,23.57
2022-11-30T03:01:45.529Z,26.07
2022-11-30T03:04:13.127Z,28.27
2022-11-30T03:06:40.627Z,29.27
2022-11-30T03:09:08.829Z,28.33
2022-11-30T03:11:36.950Z,21.67
2022-11-30T03:14:04.546Z,23.10
2022-11-30T03:16:32.137Z,24.53
2022-11-30T03:19:01.012Z,25.20
2022-11-30T03:21:29.318Z,28.03
2022-11-30T03:23:56.811Z,23.30
2022-11-30T03:26:24.301Z,26.50
2022-11-30T03:28:51.846Z,26.67
2022-11-30T03:31:19.429Z,27.10
2022-11-30T03:33:47.207Z,27.87
2022-11-30T03:36:16.187Z,23.67
2022-11-30T03:38:43.737Z,24.60
2022-11-30T03:41:13.997Z,26.50
2022-11-30T03:43:41.647Z,31.90
2022-11-30T03:46:09.234Z,18.53
2022-11-30T03:48:37.391Z,20.03
2022-11-30T03:51:05.256Z,23.13
2022-11-30T03:53:34.619Z,23.50
2022-11-30T03:56:03.408Z,23.40
2022-11-30T03:58:30.966Z,27.33
2022-11-30T04:01:02.591Z,25.03
2022-11-30T04:03:30.620Z,30.73
2022-11-30T04:05:58.455Z,23.37
2022-11-30T04:08:26.721Z,21.80
2022-11-30T04:10:57.280Z,26.73
2022-11-30T04:13:25.818Z,26.00
2022-11-30T04:15:54.690Z,23.73
2022-11-30T04:18:23.899Z,28.20
2022-11-30T04:20:52.126Z,25.83
2022-11-30T04:23:19.918Z,25.67
2022-11-30T04:25:47.988Z,25.00
2022-11-30T04:28:17.821Z,21.37
2022-11-30T04:30:46.152Z,24.80
2022-11-30T04:33:14.139Z,26.20
2022-11-30T04:35:42.397Z,21.10
2022-11-30T04:38:10.154Z,18.60
2022-11-30T04:40:40.330Z,24.37
2022-11-30T04:43:07.928Z,26.00
2022-11-30T04:45:36.980Z,18.10
2022-11-30T04:48:06.863Z,26.13
2022-11-30T04:50:34.476Z,23.70
2022-11-30T04:53:02.040Z,21.17
2022-11-30T04:55:29.711Z,21.53
2022-11-30T04:57:57.223Z,24.73
2022-11-30T05:00:24.845Z,26.63
2022-11-30T05:02:53.739Z,28.07
2022-11-30T05:05:21.591Z,31.97
2022-11-30T05:07:50.506Z,31.17
2022-11-30T05:10:18.296Z,27.77
2022-11-30T05:12:46.010Z,35.17
2022-11-30T05:15:13.531Z,27.43
2022-11-30T05:17:41.047Z,23.70
2022-11-30T05:20:10.863Z,26.07
2022-11-30T05:22:38.365Z,31.03
2022-11-30T05:25:06.487Z,22.03
2022-11-30T05:27:35.222Z,21.03
2022-11-30T05:30:03.142Z,25.80
2022-11-30T05:32:30.652Z,29.90
2022-11-30T05:34:58.720Z,25.10
2022-11-30T05:37:27.804Z,22.07
2022-11-30T05:39:55.336Z,28.07
2022-11-30T05:42:22.896Z,34.17
2022-11-30T05:44:50.697Z,21.00
2022-11-30T05:47:18.520Z,23.23
2022-11-30T05:49:46.168Z,24.27
2022-11-30T05:52:13.667Z,25.57
2022-11-30T05:54:42.523Z,22.80
2022-11-30T05:57:10.051Z,27.07
2022-11-30T05:59:37.548Z,18.23
2022-11-30T06:02:05.151Z,23.57
2022-11-30T06:04:34.267Z,28.00
2022-11-30T06:07:06.232Z,25.50
2022-11-30T06:10:39.794Z,29.10
2022-11-30T06:13:09.714Z,32.20
2022-11-30T06:15:37.493Z,30.27
2022-11-30T06:18:05.589Z,25.37
2022-11-30T06:20:33.415Z,28.77
2022-11-30T06:23:01.067Z,31.60
2022-11-30T06:25:28.687Z,33.00
2022-11-30T06:27:56.419Z,26.73
2022-11-30T06:30:25.412Z,31.83
2022-11-30T06:32:53.364Z,24.73
2022-11-30T06:35:21.097Z,24.83
2022-11-30T06:37:48.686Z,25.07
2022-11-30T06:40:17.039Z,33.23
2022-11-30T06:42:44.560Z,19.83
2022-11-30T06:45:12.406Z,26.17
2022-11-30T06:47:41.575Z,34.10
2022-11-30T06:50:09.814Z,36.60
2022-11-30T06:52:37.454Z,30.63
2022-11-30T06:55:05.597Z,29.23
2022-11-30T06:57:33.117Z,22.80
2022-11-30T07:00:00.631Z,30.77
2022-11-30T07:02:28.212Z,31.20
2022-11-30T07:04:57.102Z,32.13
2022-11-30T07:07:24.901Z,25.73
2022-11-30T07:09:52.461Z,25.90
2022-11-30T07:12:20.093Z,26.60
2022-11-30T07:14:53.243Z,26.37
2022-11-30T07:17:20.911Z,26.40
2022-11-30T07:19:48.447Z,30.70
2022-11-30T07:22:17.371Z,25.57
2022-11-30T07:25:02.700Z,26.87
2022-11-30T07:27:30.234Z,27.90
2022-11-30T07:29:57.731Z,28.63
2022-11-30T07:32:25.257Z,29.53
2022-11-30T07:34:52.748Z,33.90
2022-11-30T07:37:21.618Z,25.57
2022-11-30T07:39:49.132Z,25.63
2022-11-30T07:42:17.620Z,28.47
2022-11-30T07:44:45.402Z,23.83
2022-11-30T07:47:13.294Z,27.07
2022-11-30T07:49:41.979Z,31.90
2022-11-30T07:52:09.585Z,26.67
2022-11-30T07:54:38.529Z,28.13
2022-11-30T07:57:06.570Z,24.80
2022-11-30T07:59:34.233Z,31.70
2022-11-30T08:02:02.144Z,28.50
2022-11-30T08:04:30.059Z,31.93
2022-11-30T08:06:57.743Z,29.90
2022-11-30T08:09:25.280Z,28.83
2022-11-30T08:11:56.851Z,23.93
2022-11-30T08:14:24.342Z,27.10
2022-11-30T08:16:51.907Z,31.33
2022-11-30T08:19:19.784Z,36.73
2022-11-30T08:21:47.320Z,42.83
2022-11-30T08:24:15.925Z,35.70
2022-11-30T08:26:43.490Z,33.57
2022-11-30T08:29:12.512Z,48.50
2022-11-30T08:31:40.207Z,32.90
2022-11-30T08:34:10.210Z,36.00
2022-11-30T08:36:38.229Z,40.50
2022-11-30T08:39:07.471Z,39.53
2022-11-30T08:41:36.132Z,35.80
2022-11-30T08:44:04.115Z,32.93
2022-11-30T08:49:23.515Z,35.63
2022-11-30T08:54:42.607Z,31.57
2022-11-30T08:57:10.281Z,32.57
2022-11-30T08:59:37.938Z,42.33
2022-11-30T09:02:07.528Z,35.33
2022-11-30T09:04:35.073Z,32.27
2022-11-30T09:07:03.693Z,29.40
2022-11-30T09:09:31.275Z,29.20
2022-11-30T09:11:58.801Z,36.37
2022-11-30T09:14:26.365Z,31.70
2022-11-30T09:16:54.389Z,31.60
2022-11-30T09:19:23.325Z,32.23
2022-11-30T09:21:52.156Z,32.90
2022-11-30T09:24:23.189Z,31.63
2022-11-30T09:26:50.945Z,25.77
2022-11-30T09:29:18.535Z,30.33
2022-11-30T09:31:46.072Z,28.60
2022-11-30T09:34:13.890Z,28.30
2022-11-30T09:36:42.811Z,32.40
2022-11-30T09:39:10.891Z,21.77
2022-11-30T09:42:02.998Z,24.87
2022-11-30T09:44:36.558Z,24.47
2022-11-30T09:47:12.249Z,23.27
2022-11-30T09:49:41.939Z,18.87
2022-11-30T09:52:14.802Z,18.27
2022-11-30T09:54:44.892Z,23.13
2022-11-30T09:57:22.048Z,21.33
2022-11-30T09:59:55.440Z,20.30
2022-11-30T10:02:26.534Z,31.03
2022-11-30T10:04:54.184Z,22.73
2022-11-30T10:07:36.243Z,23.67
2022-11-30T10:13:01.295Z,19.47
2022-11-30T10:15:36.260Z,22.67
2022-11-30T10:18:11.940Z,24.07
2022-11-30T10:20:51.157Z,21.87
2022-11-30T10:23:30.775Z,26.50
2022-11-30T10:25:59.142Z,22.80
2022-11-30T10:28:52.379Z,24.17
2022-11-30T10:31:21.766Z,27.77
2022-11-30T10:33:51.863Z,29.00
2022-11-30T10:36:26.741Z,28.33
2022-11-30T10:39:00.719Z,26.17
2022-11-30T10:41:32.060Z,24.20
2022-11-30T10:44:01.865Z,25.00
2022-11-30T10:46:31.739Z,21.27
2022-11-30T10:49:02.659Z,23.60
2022-11-30T10:51:30.425Z,26.03
2022-11-30T10:54:00.229Z,31.37
2022-11-30T10:56:27.721Z,29.07
2022-11-30T10:58:59.336Z,24.20
2022-11-30T11:01:34.964Z,26.40
2022-11-30T11:04:16.085Z,31.33
2022-11-30T11:06:47.977Z,20.63
2022-11-30T11:09:33.624Z,25.10
2022-11-30T11:12:03.242Z,23.27
2022-11-30T11:14:34.992Z,29.20
2022-11-30T11:17:06.847Z,21.40
2022-11-30T11:19:37.629Z,24.23
2022-11-30T11:22:07.567Z,21.20
2022-11-30T11:24:36.730Z,24.93
2022-11-30T11:27:04.482Z,19.93
2022-11-30T11:29:34.176Z,21.67
2022-11-30T11:32:14.545Z,18.77
2022-11-30T11:34:46.560Z,20.23
2022-11-30T11:37:23.542Z,16.77
2022-11-30T11:40:00.370Z,20.70
2022-11-30T11:42:29.554Z,22.00
2022-11-30T11:44:59.161Z,21.67
2022-11-30T11:47:28.266Z,20.60
2022-11-30T11:50:50.266Z,16.57
2022-11-30T11:53:22.707Z,19.97
2022-11-30T11:55:55.268Z,20.53
2022-11-30T11:58:34.017Z,21.67
2022-11-30T12:01:31.719Z,20.93
2022-11-30T12:04:00.297Z,17.30
2022-11-30T12:06:32.310Z,18.00
2022-11-30T12:09:04.341Z,21.63
2022-11-30T12:11:41.329Z,19.43
2022-11-30T12:14:12.406Z,17.33
2022-11-30T12:16:51.381Z,19.50
2022-11-30T12:19:21.793Z,23.93
2022-11-30T12:21:58.958Z,23.00
2022-11-30T12:24:45.432Z,25.77
2022-11-30T12:27:20.137Z,18.37
2022-11-30T12:29:55.622Z,21.17
2022-11-30T12:32:31.093Z,18.30
2022-11-30T12:35:09.268Z,19.03
2022-11-30T12:37:47.534Z,18.10
2022-11-30T12:40:24.264Z,20.97
2022-11-30T12:42:58.172Z,22.23
2022-11-30T12:45:28.906Z,22.00
2022-11-30T12:48:01.904Z,23.07
2022-11-30T12:50:45.600Z,21.27
2022-11-30T12:53:21.299Z,27.47
2022-11-30T12:55:56.209Z,20.70
2022-11-30T12:58:30.538Z,21.90
2022-11-30T13:01:08.103Z,21.07
2022-11-30T13:03:44.711Z,22.27
2022-11-30T13:06:14.648Z,21.03
2022-11-30T13:08:52.955Z,19.57
2022-11-30T13:11:23.851Z,23.83
2022-11-30T13:13:54.730Z,21.70
2022-11-30T13:16:24.597Z,34.80
2022-11-30T13:18:52.942Z,28.33
2022-11-30T13:21:24.462Z,33.60
2022-11-30T13:23:58.204Z,32.27
2022-11-30T13:26:29.696Z,35.90
2022-11-30T13:29:08.744Z,35.13
2022-11-30T13:31:40.504Z,31.20
2022-11-30T13:34:23.824Z,33.87
2022-11-30T13:36:51.459Z,30.60
2022-11-30T13:39:24.320Z,35.00
2022-11-30T13:42:09.842Z,27.93
2022-11-30T13:44:39.802Z,30.30
2022-11-30T13:47:17.236Z,28.00
2022-11-30T13:49:45.051Z,29.60
2022-11-30T13:52:22.621Z,29.47
2022-11-30T13:54:53.840Z,30.37
2022-11-30T13:58:01.228Z,31.87
2022-11-30T14:01:02.154Z,34.40
2022-11-30T14:03:32.420Z,30.97
2022-11-30T14:06:00.576Z,28.40
2022-11-30T14:08:33.872Z,28.70
2022-11-30T14:11:38.842Z,32.40
2022-11-30T14:14:45.079Z,29.70
2022-11-30T14:17:21.965Z,30.77
2022-11-30T14:19:54.307Z,27.80
2022-11-30T14:22:22.235Z,27.57
2022-11-30T14:24:50.452Z,30.73
2022-11-30T14:27:20.092Z,22.30
2022-11-30T14:29:53.079Z,30.37
2022-11-30T14:32:27.180Z,29.60
2022-11-30T14:35:03.381Z,31.90
2022-11-30T14:37:33.699Z,30.20
2022-11-30T14:40:03.298Z,26.57
2022-11-30T14:42:32.552Z,27.60
2022-11-30T14:45:00.258Z,30.27
2022-11-30T14:47:29.296Z,21.70
2022-11-30T14:50:01.939Z,24.70
2022-11-30T14:52:58.980Z,31.77
2022-11-30T14:55:31.137Z,26.33
2022-11-30T14:58:08.130Z,30.83
2022-11-30T15:00:39.518Z,33.73
2022-11-30T15:03:18.249Z,30.13
2022-11-30T15:05:47.294Z,35.43
2022-11-30T15:08:16.332Z,26.00
2022-11-30T15:10:44.224Z,31.80
2022-11-30T15:13:14.118Z,27.57
2022-11-30T15:15:51.227Z,27.97
2022-11-30T15:18:20.010Z,30.00
2022-11-30T15:20:54.017Z,25.77
2022-11-30T15:23:21.631Z,22.10
2022-11-30T15:25:51.364Z,23.90
2022-11-30T15:28:22.548Z,27.43
2022-11-30T15:30:52.817Z,24.33
2022-11-30T15:33:21.619Z,26.90
2022-11-30T15:38:40.045Z,25.63
2022-11-30T15:41:13.983Z,26.53
2022-11-30T15:43:45.225Z,22.23
2022-11-30T15:46:28.739Z,27.67
2022-11-30T15:49:06.936Z,23.23
2022-11-30T15:51:39.850Z,21.33
2022-11-30T15:54:07.446Z,29.60
2022-11-30T15:56:35.100Z,23.70
2022-11-30T15:59:05.034Z,28.17
2022-11-30T16:01:34.059Z,23.97
2022-11-30T16:04:04.583Z,25.13
2022-11-30T16:06:35.314Z,25.30
2022-11-30T16:09:07.740Z,22.77
2022-11-30T16:11:36.553Z,24.20
2022-11-30T16:14:04.145Z,20.63
2022-11-30T16:16:33.161Z,18.03
2022-11-30T16:19:00.854Z,15.43
2022-11-30T16:21:28.516Z,15.73
2022-11-30T16:24:06.660Z,16.07
2022-11-30T16:27:15.864Z,16.60
2022-11-30T16:30:18.844Z,17.53
2022-11-30T16:33:04.162Z,16.83
2022-11-30T16:35:46.560Z,19.53
2022-11-30T16:38:31.399Z,15.73
2022-11-30T16:41:37.295Z,19.70
2022-11-30T16:44:28.458Z,17.17
2022-11-30T16:47:08.714Z,14.27
2022-11-30T16:49:37.708Z,15.47
2022-11-30T16:52:07.794Z,14.17
2022-11-30T16:54:36.686Z,12.00
2022-11-30T16:57:04.977Z,15.93
2022-11-30T17:01:33.184Z,21.40
2022-11-30T17:02:45.116Z,17.47
2022-11-30T17:05:13.521Z,13.07
2022-11-30T17:07:42.632Z,13.87
2022-11-30T17:10:11.133Z,14.37
2022-11-30T17:12:39.010Z,21.67
2022-11-30T17:15:12.671Z,15.20
2022-11-30T17:18:29.631Z,15.67
2022-11-30T17:20:55.525Z,18.13
2022-11-30T17:23:30.698Z,19.77
2022-11-30T17:26:32.010Z,16.50
2022-11-30T17:29:31.002Z,14.80
2022-11-30T17:32:47.403Z,14.50
2022-11-30T17:35:20.342Z,13.60
2022-11-30T17:37:51.089Z,14.07
2022-11-30T17:40:20.685Z,12.60
2022-11-30T17:42:55.228Z,14.13
2022-11-30T17:45:39.389Z,13.57
2022-11-30T17:48:23.081Z,12.57
2022-11-30T17:50:55.580Z,16.40
2022-11-30T17:53:54.578Z,17.40
2022-11-30T17:56:28.156Z,19.53
2022-11-30T17:58:56.170Z,20.47
2022-11-30T18:01:26.203Z,16.13
2022-11-30T18:04:16.387Z,17.27
2022-11-30T18:06:46.833Z,15.90
2022-11-30T18:09:24.879Z,18.93
2022-11-30T18:12:07.159Z,17.07
2022-11-30T18:14:48.731Z,16.67
2022-11-30T18:17:26.040Z,21.40
2022-11-30T18:19:59.105Z,20.27
2022-11-30T18:22:33.030Z,17.40
2022-11-30T18:25:02.529Z,17.20
2022-11-30T18:30:44.802Z,15.10
2022-11-30T18:33:38.936Z,15.23
2022-11-30T18:36:26.325Z,17.50
2022-11-30T18:39:22.282Z,13.40
2022-11-30T18:42:58.663Z,15.70
2022-11-30T18:46:23.576Z,18.07
2022-11-30T18:48:49.219Z,16.00
2022-11-30T18:51:36.415Z,16.20
2022-11-30T18:58:12.078Z,22.90
2022-11-30T19:09:09.572Z,27.00
2022-11-30T19:11:44.719Z,21.87
2022-11-30T19:14:46.078Z,22.37
2022-11-30T19:20:59.628Z,25.20
2022-11-30T19:24:00.939Z,17.30
2022-11-30T19:26:53.846Z,20.20
2022-11-30T19:29:21.759Z,19.97
2022-11-30T19:35:03.946Z,17.90
2022-11-30T19:44:50.570Z,18.80
2022-11-30T19:47:46.455Z,17.33
2022-11-30T19:54:16.235Z,17.83
2022-11-30T19:57:05.021Z,13.70
2022-11-30T20:01:08.819Z,18.17
2022-11-30T20:10:17.985Z,20.83
2022-11-30T20:13:23.944Z,28.37
2022-11-30T20:19:31.156Z,17.60
2022-11-30T20:23:14.535Z,18.00
2022-11-30T20:36:30.750Z,19.10
2022-11-30T20:43:00.708Z,17.17
2022-11-30T20:45:37.658Z,14.60
2022-11-30T20:48:53.187Z,22.00
2022-11-30T20:51:54.211Z,18.17
2022-11-30T20:54:39.103Z,20.73
2022-11-30T21:05:14.153Z,17.03
2022-11-30T21:15:17.325Z,20.37
2022-11-30T21:20:55.877Z,15.33
2022-11-30T21:23:27.660Z,19.23
2022-11-30T21:26:08.353Z,17.37
2022-11-30T21:28:38.197Z,14.53
2022-11-30T21:31:09.091Z,16.97
2022-11-30T21:33:39.714Z,16.30
2022-11-30T21:36:11.419Z,19.97
2022-11-30T21:38:42.627Z,20.33
2022-11-30T21:41:12.301Z,15.00
2022-11-30T21:43:43.097Z,16.63
2022-11-30T21:46:13.435Z,14.93
2022-11-30T21:48:46.521Z,15.50
2022-11-30T21:51:16.274Z,20.50
2022-11-30T21:53:45.258Z,17.27
2022-11-30T21:56:18.790Z,15.90
2022-11-30T21:58:47.849Z,15.83
2022-11-30T22:01:17.697Z,17.07
2022-11-30T22:03:46.976Z,16.83
2022-11-30T22:06:16.096Z,18.50
2022-11-30T22:09:08.250Z,14.80
2022-11-30T22:11:34.182Z,16.50
2022-11-30T22:14:04.343Z,14.13
2022-11-30T22:16:35.871Z,18.70
2022-11-30T22:19:07.339Z,14.17
2022-11-30T22:21:48.283Z,17.00
2022-11-30T22:24:20.211Z,17.30
2022-11-30T22:26:49.126Z,19.70
2022-11-30T22:29:22.482Z,19.57
2022-11-30T22:31:55.225Z,19.40
2022-11-30T22:34:26.365Z,18.20
2022-11-30T22:36:56.879Z,18.40
2022-11-30T22:39:29.880Z,22.43
2022-11-30T22:41:57.637Z,20.60
2022-11-30T22:44:35.569Z,21.30
2022-11-30T22:47:12.885Z,16.40
2022-11-30T22:49:43.233Z,19.93
2022-11-30T22:52:28.091Z,19.90
2022-11-30T22:55:03.939Z,17.97
2022-11-30T22:57:33.765Z,21.03
2022-11-30T23:00:05.694Z,19.93
2022-11-30T23:02:44.460Z,16.10
2022-11-30T23:05:21.763Z,19.97
2022-11-30T23:07:54.075Z,21.57
2022-11-30T23:10:21.639Z,18.03
2022-11-30T23:12:59.689Z,22.93
2022-11-30T23:15:27.524Z,18.17
2022-11-30T23:17:54.998Z,19.87
2022-11-30T23:20:23.863Z,22.40
2022-11-30T23:22:51.412Z,20.07
2022-11-30T23:25:18.912Z,21.10
2022-11-30T23:27:46.433Z,16.37
2022-11-30T23:30:14.168Z,17.80
2022-11-30T23:32:41.699Z,23.13
2022-11-30T23:35:10.042Z,20.13
2022-11-30T23:37:38.894Z,22.70
2022-11-30T23:40:08.011Z,18.47
2022-11-30T23:42:35.566Z,18.17
2022-11-30T23:45:03.043Z,19.97
2022-11-30T23:47:30.577Z,21.40
2022-11-30T23:49:58.067Z,20.70
2022-11-30T23:52:25.664Z,19.13
2022-11-30T23:54:54.478Z,24.63
2022-11-30T23:57:22.016Z,21.43
2022-11-30T23:59:49.959Z,20.30
